createdAt,value
2023-01-21T00:00:07.727Z,90
2023-01-21T00:01:15.490Z,80
2023-01-21T00:02:23.035Z,84
2023-01-21T00:03:30.243Z,84
2023-01-21T00:04:37.275Z,90
2023-01-21T00:05:44.407Z,89
2023-01-21T00:06:51.420Z,89
2023-01-21T00:07:58.835Z,90
2023-01-21T00:09:05.724Z,83
2023-01-21T00:10:12.972Z,82
2023-01-21T00:11:20.035Z,99
2023-01-21T00:12:27.130Z,88
2023-01-21T00:13:34.227Z,90
2023-01-21T00:14:41.349Z,87
2023-01-21T00:15:48.505Z,88
2023-01-21T00:16:55.755Z,90
2023-01-21T00:18:03.403Z,91
2023-01-21T00:19:10.873Z,94
2023-01-21T00:20:18.153Z,92
2023-01-21T00:21:25.192Z,93
2023-01-21T00:22:32.267Z,91
2023-01-21T00:23:39.543Z,91
2023-01-21T00:24:46.533Z,98
2023-01-21T00:25:53.687Z,91
2023-01-21T00:27:05.985Z,94
2023-01-21T00:28:12.931Z,94
2023-01-21T00:29:20.211Z,89
2023-01-21T00:30:27.298Z,87
2023-01-21T00:31:34.607Z,91
2023-01-21T00:32:41.619Z,88
2023-01-21T00:33:48.591Z,94
2023-01-21T00:34:55.718Z,84
2023-01-21T00:36:02.872Z,83
2023-01-21T00:37:10.070Z,83
2023-01-21T00:38:17.222Z,87
2023-01-21T00:39:24.319Z,86
2023-01-21T00:40:31.355Z,80
2023-01-21T00:41:38.503Z,79
2023-01-21T00:42:45.642Z,76
2023-01-21T00:43:52.660Z,83
2023-01-21T00:44:59.930Z,78
2023-01-21T00:46:07.522Z,77
2023-01-21T00:47:14.546Z,76
2023-01-21T00:48:21.679Z,81
2023-01-21T00:49:28.872Z,79
2023-01-21T00:50:36.011Z,81
2023-01-21T00:51:43.147Z,74
2023-01-21T00:52:50.187Z,75
2023-01-21T00:53:57.215Z,72
2023-01-21T00:55:04.403Z,67
2023-01-21T00:56:11.602Z,76
2023-01-21T00:57:18.803Z,78
2023-01-21T00:58:25.883Z,76
2023-01-21T00:59:32.984Z,71
2023-01-21T01:00:39.996Z,67
2023-01-21T01:01:47.278Z,74
2023-01-21T01:02:54.314Z,77
2023-01-21T01:04:01.472Z,69
2023-01-21T01:05:08.498Z,69
2023-01-21T01:06:15.549Z,74
2023-01-21T01:07:22.875Z,76
2023-01-21T01:08:29.895Z,68
2023-01-21T01:09:36.990Z,69
2023-01-21T01:10:44.160Z,73
2023-01-21T01:11:51.270Z,68
2023-01-21T01:12:58.297Z,75
2023-01-21T01:14:05.495Z,77
2023-01-21T01:15:12.613Z,75
2023-01-21T01:16:19.706Z,70
2023-01-21T01:17:26.950Z,74
2023-01-21T01:18:34.010Z,77
2023-01-21T01:19:41.263Z,86
2023-01-21T01:20:48.698Z,89
2023-01-21T01:21:55.838Z,86
2023-01-21T01:23:03.040Z,79
2023-01-21T01:24:10.161Z,88
2023-01-21T01:25:17.222Z,77
2023-01-21T01:26:24.419Z,81
2023-01-21T01:27:31.572Z,81
2023-01-21T01:28:38.787Z,78
2023-01-21T01:29:45.896Z,82
2023-01-21T01:30:53.003Z,77
2023-01-21T01:31:59.955Z,74
2023-01-21T01:33:07.040Z,72
2023-01-21T01:34:14.223Z,78
2023-01-21T01:35:21.414Z,75
2023-01-21T01:36:28.568Z,69
2023-01-21T01:37:35.839Z,71
2023-01-21T01:38:42.876Z,74
2023-01-21T01:39:49.918Z,67
2023-01-21T01:40:57.006Z,72
2023-01-21T01:42:04.290Z,69
2023-01-21T01:43:11.935Z,73
2023-01-21T01:44:21.526Z,79
2023-01-21T01:45:38.802Z,67
2023-01-21T01:46:45.954Z,72
2023-01-21T01:47:53.062Z,73
2023-01-21T01:49:00.123Z,73
2023-01-21T01:50:09.947Z,70
2023-01-21T01:51:16.992Z,69
2023-01-21T01:52:24.082Z,69
2023-01-21T01:53:31.343Z,63
2023-01-21T01:54:38.325Z,66
2023-01-21T01:55:45.606Z,65
2023-01-21T01:56:52.637Z,65
2023-01-21T01:57:59.851Z,62
2023-01-21T01:59:06.834Z,68
2023-01-21T02:00:14.327Z,65
2023-01-21T02:01:21.176Z,61
2023-01-21T02:02:28.356Z,60
2023-01-21T02:03:35.495Z,64
2023-01-21T02:04:47.642Z,64
2023-01-21T02:05:54.604Z,64
2023-01-21T02:07:01.739Z,65
2023-01-21T02:08:08.818Z,65
2023-01-21T02:09:15.959Z,64
2023-01-21T02:10:23.163Z,61
2023-01-21T02:11:30.347Z,66
2023-01-21T02:12:37.459Z,60
2023-01-21T02:13:44.544Z,65
2023-01-21T02:14:54.596Z,66
2023-01-21T02:16:01.798Z,60
2023-01-21T02:17:16.638Z,60
2023-01-21T02:18:28.799Z,62
2023-01-21T02:19:46.107Z,61
2023-01-21T02:21:03.326Z,60
2023-01-21T02:22:18.213Z,64
2023-01-21T02:23:25.307Z,65
2023-01-21T02:24:40.658Z,69
2023-01-21T02:25:58.260Z,69
2023-01-21T02:27:10.541Z,64
2023-01-21T02:28:27.863Z,64
2023-01-21T02:29:35.165Z,61
2023-01-21T02:30:50.219Z,69
2023-01-21T02:32:07.602Z,71
2023-01-21T02:33:22.816Z,64
2023-01-21T02:34:40.267Z,65
2023-01-21T02:35:53.112Z,64
2023-01-21T02:37:08.483Z,65
2023-01-21T02:38:18.692Z,65
2023-01-21T02:39:25.862Z,71
2023-01-21T02:40:41.090Z,63
2023-01-21T02:41:58.239Z,65
2023-01-21T02:43:13.678Z,75
2023-01-21T02:44:25.841Z,67
2023-01-21T02:45:38.094Z,66
2023-01-21T02:46:45.169Z,76
2023-01-21T02:47:54.894Z,62
2023-01-21T02:49:10.022Z,68
2023-01-21T02:50:22.322Z,68
2023-01-21T02:51:32.400Z,70
2023-01-21T02:52:39.591Z,81
2023-01-21T02:53:46.750Z,67
2023-01-21T02:54:53.829Z,71
2023-01-21T02:56:02.109Z,74
2023-01-21T02:57:09.223Z,77
2023-01-21T02:58:16.147Z,74
2023-01-21T02:59:23.404Z,74
2023-01-21T03:00:30.548Z,77
2023-01-21T03:01:40.715Z,67
2023-01-21T03:02:53.267Z,72
2023-01-21T03:04:10.670Z,80
2023-01-21T03:05:22.880Z,72
2023-01-21T03:06:35.572Z,74
2023-01-21T03:07:48.741Z,74
2023-01-21T03:09:06.462Z,77
2023-01-21T03:10:21.326Z,79
2023-01-21T03:11:31.562Z,68
2023-01-21T03:12:38.647Z,73
2023-01-21T03:13:53.804Z,75
2023-01-21T03:15:14.174Z,77
2023-01-21T03:16:26.474Z,73
2023-01-21T03:17:38.671Z,76
2023-01-21T03:18:45.818Z,75
2023-01-21T03:19:53.392Z,78
2023-01-21T03:21:05.567Z,80
2023-01-21T03:22:12.614Z,74
2023-01-21T03:23:19.754Z,75
2023-01-21T03:24:35.087Z,78
2023-01-21T03:25:42.191Z,70
2023-01-21T03:26:49.169Z,72
2023-01-21T03:27:56.301Z,79
2023-01-21T03:29:03.398Z,72
2023-01-21T03:30:10.523Z,74
2023-01-21T03:31:17.733Z,76
2023-01-21T03:32:24.851Z,72
2023-01-21T03:33:31.879Z,70
2023-01-21T03:34:39.041Z,72
2023-01-21T03:35:46.210Z,76
2023-01-21T03:36:53.599Z,79
2023-01-21T03:38:00.938Z,69
2023-01-21T03:39:08.016Z,73
2023-01-21T03:40:15.560Z,78
2023-01-21T03:41:27.437Z,73
2023-01-21T03:42:34.866Z,74
2023-01-21T03:43:42.046Z,72
2023-01-21T03:44:49.590Z,76
2023-01-21T03:45:56.706Z,79
2023-01-21T03:47:03.990Z,73
2023-01-21T03:48:19.141Z,75
2023-01-21T03:49:36.458Z,74
2023-01-21T03:50:51.560Z,72
2023-01-21T03:51:58.727Z,75
2023-01-21T03:53:05.945Z,74
2023-01-21T03:54:13.003Z,73
2023-01-21T03:55:20.070Z,75
2023-01-21T03:56:27.197Z,76
2023-01-21T03:57:34.400Z,73
2023-01-21T03:58:41.494Z,89
2023-01-21T03:59:48.423Z,76
2023-01-21T04:00:55.644Z,78
2023-01-21T04:02:02.778Z,69
2023-01-21T04:03:09.862Z,74
2023-01-21T04:04:16.984Z,76
2023-01-21T04:05:24.287Z,78
2023-01-21T04:06:31.429Z,71
2023-01-21T04:07:38.870Z,73
2023-01-21T04:08:46.019Z,73
2023-01-21T04:10:05.746Z,69
2023-01-21T04:11:18.586Z,77
2023-01-21T04:12:25.758Z,75
2023-01-21T04:13:32.847Z,74
2023-01-21T04:14:39.986Z,72
2023-01-21T04:15:47.065Z,69
2023-01-21T04:16:53.999Z,70
2023-01-21T04:18:01.198Z,77
2023-01-21T04:19:08.342Z,69
2023-01-21T04:20:15.724Z,70
2023-01-21T04:21:22.693Z,72
2023-01-21T04:22:29.721Z,78
2023-01-21T04:23:36.879Z,77
2023-01-21T04:24:43.922Z,72
2023-01-21T04:25:51.160Z,73
2023-01-21T04:26:58.618Z,73
2023-01-21T04:28:05.802Z,73
2023-01-21T04:29:12.894Z,74
2023-01-21T04:30:19.959Z,77
2023-01-21T04:31:27.161Z,79
2023-01-21T04:32:34.362Z,74
2023-01-21T04:33:41.328Z,76
2023-01-21T04:34:48.377Z,72
2023-01-21T04:35:55.579Z,75
2023-01-21T04:37:05.735Z,74
2023-01-21T04:38:12.834Z,75
2023-01-21T04:39:20.018Z,72
2023-01-21T04:40:27.184Z,72
2023-01-21T04:41:34.286Z,79
2023-01-21T04:42:41.463Z,81
2023-01-21T04:43:48.386Z,80
2023-01-21T04:44:55.446Z,78
2023-01-21T04:46:02.945Z,82
2023-01-21T04:47:09.804Z,79
2023-01-21T04:48:16.853Z,83
2023-01-21T04:49:23.954Z,81
2023-01-21T04:50:31.057Z,82
2023-01-21T04:51:38.296Z,77
2023-01-21T04:52:45.486Z,76
2023-01-21T04:53:52.981Z,73
2023-01-21T04:55:00.050Z,78
2023-01-21T04:56:07.162Z,78
2023-01-21T04:57:14.300Z,82
2023-01-21T04:58:21.478Z,75
2023-01-21T04:59:28.729Z,74
2023-01-21T05:00:35.754Z,74
2023-01-21T05:01:42.748Z,72
2023-01-21T05:02:49.897Z,74
2023-01-21T05:03:56.938Z,74
2023-01-21T05:05:04.140Z,75
2023-01-21T05:06:11.766Z,76
2023-01-21T05:07:21.493Z,78
2023-01-21T05:08:25.987Z,76
2023-01-21T05:09:33.155Z,80
2023-01-21T05:10:40.246Z,76
2023-01-21T05:11:47.401Z,77
2023-01-21T05:12:54.495Z,77
2023-01-21T05:14:01.539Z,75
2023-01-21T05:15:08.662Z,78
2023-01-21T05:16:15.778Z,70
2023-01-21T05:17:22.878Z,74
2023-01-21T05:18:30.111Z,81
2023-01-21T05:19:37.330Z,78
2023-01-21T05:20:44.278Z,77
2023-01-21T05:21:51.726Z,74
2023-01-21T05:22:58.951Z,79
2023-01-21T05:24:05.987Z,80
2023-01-21T05:25:13.358Z,76
2023-01-21T05:26:20.859Z,75
2023-01-21T05:27:28.013Z,82
2023-01-21T05:28:35.065Z,78
2023-01-21T05:29:42.255Z,75
2023-01-21T05:30:49.274Z,74
2023-01-21T05:31:56.411Z,79
2023-01-21T05:33:03.512Z,86
2023-01-21T05:34:10.559Z,80
2023-01-21T05:35:17.695Z,79
2023-01-21T05:36:24.784Z,75
2023-01-21T05:37:32.100Z,80
2023-01-21T05:38:39.192Z,79
2023-01-21T05:39:46.177Z,78
2023-01-21T05:40:53.257Z,84
2023-01-21T05:42:03.444Z,82
2023-01-21T05:43:10.595Z,81
2023-01-21T05:44:17.987Z,88
2023-01-21T05:45:24.810Z,74
2023-01-21T05:46:32.034Z,86
2023-01-21T05:47:39.134Z,76
2023-01-21T05:48:46.195Z,75
2023-01-21T05:49:53.622Z,80
2023-01-21T05:51:00.808Z,79
2023-01-21T05:52:07.999Z,82
2023-01-21T05:53:15.098Z,94
2023-01-21T05:54:22.161Z,86
2023-01-21T05:55:29.313Z,84
2023-01-21T05:56:36.501Z,79
2023-01-21T05:57:43.623Z,89
2023-01-21T05:58:50.660Z,86
2023-01-21T05:59:57.738Z,79
2023-01-21T06:01:04.863Z,83
2023-01-21T06:02:12.150Z,81
2023-01-21T06:03:19.677Z,85
2023-01-21T06:04:26.958Z,84
2023-01-21T06:05:33.882Z,79
2023-01-21T06:06:40.992Z,82
2023-01-21T06:07:48.037Z,80
2023-01-21T06:08:55.174Z,83
2023-01-21T06:10:02.371Z,89
2023-01-21T06:11:09.994Z,83
2023-01-21T06:12:17.142Z,82
2023-01-21T06:13:24.126Z,78
2023-01-21T06:14:31.230Z,78
2023-01-21T06:15:38.462Z,82
2023-01-21T06:16:45.615Z,83
2023-01-21T06:17:53.335Z,84
2023-01-21T06:19:00.338Z,79
2023-01-21T06:20:07.342Z,79
2023-01-21T06:21:15.061Z,78
2023-01-21T06:22:22.189Z,80
2023-01-21T06:23:29.355Z,76
2023-01-21T06:24:36.498Z,81
2023-01-21T06:25:43.633Z,79
2023-01-21T06:26:50.612Z,76
2023-01-21T06:27:57.783Z,81
2023-01-21T06:29:04.816Z,83
2023-01-21T06:30:12.090Z,82
2023-01-21T06:31:19.983Z,82
2023-01-21T06:32:27.309Z,76
2023-01-21T06:33:34.413Z,75
2023-01-21T06:34:41.559Z,82
2023-01-21T06:35:49.135Z,85
2023-01-21T06:36:56.186Z,78
2023-01-21T06:38:03.301Z,81
2023-01-21T06:39:10.441Z,77
2023-01-21T06:40:18.068Z,78
2023-01-21T06:41:24.761Z,87
2023-01-21T06:42:31.852Z,76
2023-01-21T06:43:39.007Z,76
2023-01-21T06:44:46.181Z,86
2023-01-21T06:45:53.318Z,79
2023-01-21T06:47:01.266Z,80
2023-01-21T06:48:07.421Z,80
2023-01-21T06:49:14.518Z,74
2023-01-21T06:50:21.705Z,77
2023-01-21T06:51:28.783Z,74
2023-01-21T06:52:35.893Z,76
2023-01-21T06:53:43.118Z,73
2023-01-21T06:54:50.102Z,78
2023-01-21T06:55:57.275Z,78
2023-01-21T06:57:04.491Z,71
2023-01-21T06:58:11.520Z,82
2023-01-21T06:59:18.695Z,67
2023-01-21T07:00:25.734Z,66
2023-01-21T07:01:32.977Z,90
2023-01-21T07:02:40.106Z,77
2023-01-21T07:03:47.206Z,69
2023-01-21T07:04:54.657Z,75
2023-01-21T07:06:01.767Z,82
2023-01-21T07:07:09.369Z,79
2023-01-21T07:08:16.503Z,76
2023-01-21T07:09:23.608Z,75
2023-01-21T07:10:30.756Z,78
2023-01-21T07:11:37.863Z,82
2023-01-21T07:12:44.966Z,75
2023-01-21T07:13:52.001Z,74
2023-01-21T07:14:59.225Z,75
2023-01-21T07:16:07.016Z,74
2023-01-21T07:17:14.122Z,79
2023-01-21T07:18:21.494Z,77
2023-01-21T07:19:28.713Z,73
2023-01-21T07:20:35.730Z,74
2023-01-21T07:21:42.998Z,73
2023-01-21T07:22:50.508Z,69
2023-01-21T07:23:57.626Z,77
2023-01-21T07:25:04.685Z,79
2023-01-21T07:26:12.347Z,70
2023-01-21T07:27:19.467Z,70
2023-01-21T07:28:26.732Z,72
2023-01-21T07:29:33.788Z,77
2023-01-21T07:30:40.947Z,77
2023-01-21T07:31:47.913Z,77
2023-01-21T07:32:55.021Z,78
2023-01-21T07:34:02.168Z,75
2023-01-21T07:35:09.348Z,93
2023-01-21T07:36:16.349Z,87
2023-01-21T07:37:23.549Z,84
2023-01-21T07:38:30.629Z,85
2023-01-21T07:39:37.757Z,85
2023-01-21T07:40:44.905Z,87
2023-01-21T07:41:52.433Z,100
2023-01-21T07:42:59.641Z,97
2023-01-21T07:44:06.751Z,90
2023-01-21T07:45:13.846Z,99
2023-01-21T07:46:21.017Z,94
2023-01-21T07:47:28.141Z,94
2023-01-21T07:48:35.367Z,99
2023-01-21T07:49:42.433Z,92
2023-01-21T07:50:49.868Z,92
2023-01-21T07:51:57.061Z,95
2023-01-21T07:53:04.194Z,96
2023-01-21T07:54:11.485Z,95
2023-01-21T07:55:18.892Z,91
2023-01-21T07:56:25.596Z,95
2023-01-21T07:57:32.772Z,92
2023-01-21T07:58:39.889Z,94
2023-01-21T07:59:47.203Z,101
2023-01-21T08:00:54.542Z,99
2023-01-21T08:02:01.857Z,101
2023-01-21T08:03:08.834Z,115
2023-01-21T08:04:15.910Z,107
2023-01-21T08:05:23.157Z,108
2023-01-21T08:06:31.111Z,103
2023-01-21T08:07:38.516Z,107
2023-01-21T08:08:45.581Z,98
2023-01-21T08:09:53.024Z,102
2023-01-21T08:11:00.233Z,101
2023-01-21T08:12:08.576Z,105
2023-01-21T08:13:15.967Z,112
2023-01-21T08:14:24.941Z,124
2023-01-21T08:15:33.788Z,117
2023-01-21T08:16:42.013Z,120
2023-01-21T08:17:53.775Z,122
2023-01-21T08:19:00.765Z,136
2023-01-21T08:20:08.039Z,138
2023-01-21T08:21:18.230Z,127
2023-01-21T08:22:26.389Z,128
2023-01-21T08:23:35.797Z,129
2023-01-21T08:24:42.985Z,124
2023-01-21T08:25:50.185Z,123
2023-01-21T08:26:57.649Z,123
2023-01-21T08:28:04.937Z,120
2023-01-21T08:29:11.926Z,119
2023-01-21T08:30:19.394Z,116
2023-01-21T08:31:27.364Z,112
2023-01-21T08:32:35.150Z,110
2023-01-21T08:33:44.257Z,112
2023-01-21T08:34:52.723Z,119
2023-01-21T08:36:01.404Z,108
2023-01-21T08:37:10.186Z,106
2023-01-21T08:38:18.501Z,108
2023-01-21T08:39:25.635Z,114
2023-01-21T08:40:33.268Z,107
2023-01-21T08:41:40.547Z,116
2023-01-21T08:42:47.796Z,102
2023-01-21T08:43:56.064Z,103
2023-01-21T08:45:03.878Z,101
2023-01-21T08:46:11.612Z,101
2023-01-21T08:47:22.254Z,106
2023-01-21T08:48:29.390Z,108
2023-01-21T08:49:38.073Z,103
2023-01-21T08:50:44.984Z,97
2023-01-21T08:51:52.535Z,101
2023-01-21T08:53:01.320Z,99
2023-01-21T08:54:08.666Z,103
2023-01-21T08:55:16.366Z,105
2023-01-21T08:56:23.496Z,102
2023-01-21T08:57:31.644Z,102
2023-01-21T08:58:39.029Z,105
2023-01-21T08:59:46.301Z,108
2023-01-21T09:00:54.275Z,99
2023-01-21T09:02:01.734Z,99
2023-01-21T09:03:09.561Z,98
2023-01-21T09:04:16.646Z,101
2023-01-21T09:05:24.337Z,101
2023-01-21T09:06:32.024Z,99
2023-01-21T09:07:38.921Z,94
2023-01-21T09:08:46.616Z,100
2023-01-21T09:09:53.877Z,98
2023-01-21T09:11:01.213Z,97
2023-01-21T09:12:08.756Z,99
2023-01-21T09:13:17.034Z,98
2023-01-21T09:14:25.021Z,102
2023-01-21T09:15:32.032Z,91
2023-01-21T09:16:44.419Z,96
2023-01-21T09:17:51.967Z,95
2023-01-21T09:18:58.864Z,94
2023-01-21T09:20:06.937Z,90
2023-01-21T09:21:15.280Z,91
2023-01-21T09:22:23.329Z,90
2023-01-21T09:23:30.537Z,92
2023-01-21T09:24:39.847Z,96
2023-01-21T09:25:47.849Z,88
2023-01-21T09:27:00.336Z,88
2023-01-21T09:28:09.652Z,91
2023-01-21T09:29:18.157Z,87
2023-01-21T09:30:25.781Z,89
2023-01-21T09:31:33.223Z,89
2023-01-21T09:32:41.040Z,94
2023-01-21T09:33:48.850Z,85
2023-01-21T09:34:57.001Z,83
2023-01-21T09:36:05.763Z,79
2023-01-21T09:37:13.606Z,89
2023-01-21T09:38:20.979Z,91
2023-01-21T09:39:29.125Z,91
2023-01-21T09:40:36.129Z,86
2023-01-21T09:41:43.198Z,88
2023-01-21T09:42:52.824Z,84
2023-01-21T09:43:59.970Z,85
2023-01-21T09:45:17.728Z,79
2023-01-21T09:46:25.676Z,69
2023-01-21T09:47:39.395Z,72
2023-01-21T09:48:49.129Z,77
2023-01-21T09:49:57.670Z,78
2023-01-21T09:51:08.622Z,74
2023-01-21T09:52:21.352Z,73
2023-01-21T09:53:31.948Z,81
2023-01-21T09:54:42.254Z,82
2023-01-21T09:55:50.554Z,70
2023-01-21T09:56:57.794Z,66
2023-01-21T09:58:10.763Z,78
2023-01-21T09:59:26.926Z,72
2023-01-21T10:00:44.520Z,84
2023-01-21T10:01:56.958Z,77
2023-01-21T10:03:04.882Z,82
2023-01-21T10:04:24.999Z,79
2023-01-21T10:05:43.143Z,78
2023-01-21T10:06:58.031Z,76
2023-01-21T10:08:07.703Z,87
2023-01-21T10:09:25.203Z,92
2023-01-21T10:10:32.186Z,89
2023-01-21T10:11:44.622Z,90
2023-01-21T10:12:53.896Z,100
2023-01-21T10:14:05.522Z,101
2023-01-21T10:15:18.623Z,111
2023-01-21T10:16:35.956Z,115
2023-01-21T10:17:48.571Z,127
2023-01-21T10:19:03.683Z,117
2023-01-21T10:20:10.842Z,113
2023-01-21T10:21:24.985Z,111
2023-01-21T10:22:37.258Z,111
2023-01-21T10:23:45.509Z,107
2023-01-21T10:24:58.367Z,111
2023-01-21T10:26:08.969Z,109
2023-01-21T10:27:16.747Z,118
2023-01-21T10:28:25.014Z,116
2023-01-21T10:29:32.221Z,112
2023-01-21T10:30:40.011Z,107
2023-01-21T10:31:47.131Z,110
2023-01-21T10:33:04.221Z,103
2023-01-21T10:34:12.479Z,96
2023-01-21T10:35:21.958Z,104
2023-01-21T10:36:29.698Z,102
2023-01-21T10:37:47.634Z,94
2023-01-21T10:38:57.773Z,100
2023-01-21T10:40:12.001Z,95
2023-01-21T10:41:20.694Z,106
2023-01-21T10:42:28.638Z,97
2023-01-21T10:43:47.390Z,87
2023-01-21T10:45:05.854Z,87
2023-01-21T10:46:21.131Z,85
2023-01-21T10:47:37.076Z,74
2023-01-21T10:48:55.810Z,76
2023-01-21T10:50:02.880Z,72
2023-01-21T10:51:16.397Z,85
2023-01-21T10:52:30.661Z,100
2023-01-21T10:53:45.609Z,88
2023-01-21T10:55:00.557Z,77
2023-01-21T10:56:18.711Z,83
2023-01-21T10:57:34.205Z,91
2023-01-21T10:58:52.439Z,80
2023-01-21T11:00:00.635Z,99
2023-01-21T11:01:09.045Z,108
2023-01-21T11:02:24.474Z,92
2023-01-21T11:03:32.082Z,96
2023-01-21T11:04:40.929Z,97
2023-01-21T11:05:50.086Z,116
2023-01-21T11:06:57.854Z,109
2023-01-21T11:08:04.937Z,100
2023-01-21T11:09:11.925Z,102
2023-01-21T11:10:19.997Z,95
2023-01-21T11:11:28.990Z,96
2023-01-21T11:12:37.703Z,104
2023-01-21T11:13:46.401Z,105
2023-01-21T11:14:53.971Z,106
2023-01-21T11:16:02.597Z,97
2023-01-21T11:17:10.042Z,85
2023-01-21T11:18:17.567Z,87
2023-01-21T11:19:33.261Z,114
2023-01-21T11:20:41.305Z,111
2023-01-21T11:21:49.628Z,106
2023-01-21T11:23:08.606Z,109
2023-01-21T11:24:25.782Z,108
2023-01-21T11:25:32.995Z,113
2023-01-21T11:26:39.915Z,102
2023-01-21T11:27:47.614Z,117
2023-01-21T11:28:54.598Z,113
2023-01-21T11:30:31.636Z,107
2023-01-21T11:31:29.424Z,113
2023-01-21T11:32:36.430Z,118
2023-01-21T11:33:43.615Z,123
2023-01-21T11:34:51.199Z,131
2023-01-21T11:36:01.407Z,131
2023-01-21T11:37:18.794Z,149
2023-01-21T11:38:26.677Z,154
2023-01-21T11:39:34.098Z,146
2023-01-21T11:40:44.150Z,141
2023-01-21T11:41:51.125Z,131
2023-01-21T11:42:58.473Z,134
2023-01-21T11:44:05.349Z,150
2023-01-21T11:45:17.789Z,139
2023-01-21T11:46:29.866Z,138
2023-01-21T11:47:39.837Z,130
2023-01-21T11:48:53.797Z,124
2023-01-21T11:50:11.762Z,123
2023-01-21T11:51:26.662Z,107
2023-01-21T11:52:34.753Z,97
2023-01-21T11:53:41.894Z,106
2023-01-21T11:54:49.339Z,98
2023-01-21T11:55:56.592Z,96
2023-01-21T11:57:03.687Z,100
2023-01-21T11:58:11.778Z,84
2023-01-21T11:59:20.857Z,90
2023-01-21T12:00:30.633Z,76
2023-01-21T12:01:38.789Z,83
2023-01-21T12:02:46.064Z,79
2023-01-21T12:03:56.581Z,70
2023-01-21T12:05:04.163Z,73
2023-01-21T12:06:24.909Z,84
2023-01-21T12:07:33.302Z,82
2023-01-21T12:08:40.609Z,65
2023-01-21T12:09:47.557Z,64
2023-01-21T12:10:56.009Z,57
2023-01-21T12:12:03.314Z,59
2023-01-21T12:13:20.662Z,62
2023-01-21T12:14:30.837Z,72
2023-01-21T12:15:37.906Z,75
2023-01-21T12:16:55.941Z,71
2023-01-21T12:18:06.640Z,68
2023-01-21T12:19:18.804Z,64
2023-01-21T12:20:34.633Z,69
2023-01-21T12:21:53.146Z,81
2023-01-21T12:23:10.896Z,63
2023-01-21T12:24:23.251Z,71
2023-01-21T12:25:38.312Z,72
2023-01-21T12:26:48.952Z,81
2023-01-21T12:28:02.797Z,72
2023-01-21T12:29:21.209Z,66
2023-01-21T12:30:31.123Z,60
2023-01-21T12:31:43.456Z,50
2023-01-21T12:32:57.749Z,64
2023-01-21T12:34:07.473Z,72
2023-01-21T12:35:20.272Z,59
2023-01-21T12:36:28.077Z,69
2023-01-21T12:37:35.142Z,66
2023-01-21T12:38:47.367Z,73
2023-01-21T12:39:58.254Z,66
2023-01-21T12:41:05.712Z,68
2023-01-21T12:42:14.016Z,61
2023-01-21T12:43:29.693Z,50
2023-01-21T12:44:45.955Z,45
2023-01-21T12:45:53.393Z,42
2023-01-21T12:47:00.628Z,41
2023-01-21T12:48:07.698Z,42
2023-01-21T12:49:17.911Z,35
2023-01-21T12:50:25.680Z,40
2023-01-21T12:51:43.198Z,40
2023-01-21T12:52:50.229Z,36
2023-01-21T12:54:03.381Z,32
2023-01-21T12:55:19.084Z,32
2023-01-21T12:56:28.518Z,29
2023-01-21T12:57:41.973Z,38
2023-01-21T12:58:54.857Z,32
2023-01-21T13:00:03.619Z,39
2023-01-21T13:01:15.823Z,40
2023-01-21T13:02:33.506Z,34
2023-01-21T13:03:43.429Z,35
2023-01-21T13:05:00.752Z,48
2023-01-21T13:06:18.938Z,38
2023-01-21T13:07:28.864Z,34
2023-01-21T13:08:40.932Z,39
2023-01-21T13:09:54.325Z,43
2023-01-21T13:11:09.653Z,42
2023-01-21T13:12:25.073Z,45
2023-01-21T13:13:32.057Z,49
2023-01-21T13:14:40.000Z,48
2023-01-21T13:15:47.194Z,56
2023-01-21T13:16:54.469Z,57
2023-01-21T13:18:02.217Z,63
2023-01-21T13:19:15.358Z,76
2023-01-21T13:20:22.389Z,80
2023-01-21T13:21:29.357Z,78
2023-01-21T13:22:42.390Z,80
2023-01-21T13:23:57.462Z,100
2023-01-21T13:25:05.392Z,95
2023-01-21T13:26:12.341Z,82
2023-01-21T13:27:19.309Z,79
2023-01-21T13:28:27.274Z,85
2023-01-21T13:29:39.395Z,75
2023-01-21T13:30:55.048Z,70
2023-01-21T13:32:02.059Z,66
2023-01-21T13:33:19.323Z,74
2023-01-21T13:34:31.573Z,66
2023-01-21T13:35:43.925Z,65
2023-01-21T13:36:57.040Z,59
2023-01-21T13:38:15.782Z,58
2023-01-21T13:39:28.918Z,55
2023-01-21T13:40:41.947Z,55
2023-01-21T13:41:55.226Z,58
2023-01-21T13:43:09.748Z,57
2023-01-21T13:44:25.709Z,55
2023-01-21T13:45:38.102Z,54
2023-01-21T13:46:55.381Z,49
2023-01-21T13:48:09.394Z,43
2023-01-21T13:49:25.857Z,49
2023-01-21T13:50:44.650Z,45
2023-01-21T13:51:54.464Z,41
2023-01-21T13:53:02.223Z,40
2023-01-21T13:54:20.238Z,34
2023-01-21T13:55:33.220Z,41
2023-01-21T13:56:46.142Z,42
2023-01-21T13:57:56.910Z,38
2023-01-21T13:59:15.131Z,34
2023-01-21T14:00:22.031Z,36
2023-01-21T14:01:37.352Z,44
2023-01-21T14:02:51.254Z,41
2023-01-21T14:04:03.464Z,38
2023-01-21T14:05:12.009Z,40
2023-01-21T14:06:25.136Z,42
2023-01-21T14:07:33.056Z,38
2023-01-21T14:08:40.569Z,38
2023-01-21T14:09:54.006Z,40
2023-01-21T14:11:04.009Z,43
2023-01-21T14:12:14.801Z,40
2023-01-21T14:13:24.658Z,33
2023-01-21T14:14:43.097Z,31
2023-01-21T14:15:54.177Z,37
2023-01-21T14:17:11.389Z,43
2023-01-21T14:18:25.508Z,39
2023-01-21T14:19:43.464Z,43
2023-01-21T14:20:59.404Z,38
2023-01-21T14:22:12.586Z,43
2023-01-21T14:23:26.753Z,42
2023-01-21T14:24:36.787Z,40
2023-01-21T14:25:54.037Z,43
2023-01-21T14:27:10.779Z,40
2023-01-21T14:28:28.406Z,38
2023-01-21T14:29:41.073Z,37
2023-01-21T14:30:58.597Z,35
2023-01-21T14:32:13.935Z,42
2023-01-21T14:33:24.475Z,37
2023-01-21T14:34:36.650Z,36
2023-01-21T14:35:47.349Z,32
2023-01-21T14:36:58.461Z,33
2023-01-21T14:38:11.013Z,35
2023-01-21T14:39:28.373Z,34
2023-01-21T14:40:39.058Z,26
2023-01-21T14:41:51.998Z,36
2023-01-21T14:43:04.701Z,35
2023-01-21T14:44:12.498Z,36
2023-01-21T14:45:20.512Z,25
2023-01-21T14:46:28.739Z,26
2023-01-21T14:47:36.505Z,32
2023-01-21T14:48:44.030Z,32
2023-01-21T14:49:51.211Z,31
2023-01-21T14:50:59.116Z,32
2023-01-21T14:52:11.126Z,32
2023-01-21T14:53:19.115Z,34
2023-01-21T14:54:28.735Z,35
2023-01-21T14:55:37.278Z,33
2023-01-21T14:56:44.923Z,25
2023-01-21T14:58:01.366Z,30
2023-01-21T14:59:08.490Z,26
2023-01-21T15:00:27.209Z,29
2023-01-21T15:01:37.463Z,29
2023-01-21T15:02:48.464Z,28
2023-01-21T15:03:59.213Z,28
2023-01-21T15:05:06.852Z,28
2023-01-21T15:06:16.001Z,28
2023-01-21T15:07:24.489Z,33
2023-01-21T15:08:32.010Z,25
2023-01-21T15:09:41.757Z,28
2023-01-21T15:10:49.044Z,26
2023-01-21T15:11:59.126Z,27
2023-01-21T15:13:06.576Z,27
2023-01-21T15:14:25.876Z,30
2023-01-21T15:15:35.425Z,33
2023-01-21T15:16:45.567Z,28
2023-01-21T15:17:52.996Z,37
2023-01-21T15:19:01.209Z,34
2023-01-21T15:20:11.690Z,32
2023-01-21T15:21:29.297Z,35
2023-01-21T15:22:37.159Z,34
2023-01-21T15:23:45.094Z,35
2023-01-21T15:24:54.469Z,37
2023-01-21T15:26:04.633Z,34
2023-01-21T15:27:12.105Z,35
2023-01-21T15:28:19.111Z,34
2023-01-21T15:29:30.317Z,34
2023-01-21T15:30:54.187Z,35
2023-01-21T15:31:49.616Z,36
2023-01-21T15:32:57.984Z,32
2023-01-21T15:34:05.978Z,34
2023-01-21T15:35:16.154Z,32
2023-01-21T15:36:34.788Z,30
2023-01-21T15:37:46.938Z,34
2023-01-21T15:38:57.438Z,31
2023-01-21T15:40:04.764Z,32
2023-01-21T15:41:21.972Z,29
2023-01-21T15:42:30.048Z,28
2023-01-21T15:43:40.237Z,32
2023-01-21T15:44:53.733Z,32
2023-01-21T15:46:13.914Z,30
2023-01-21T15:47:32.748Z,30
2023-01-21T15:48:48.225Z,30
2023-01-21T15:50:01.033Z,29
2023-01-21T15:51:20.463Z,27
2023-01-21T15:52:33.234Z,25
2023-01-21T15:53:45.424Z,30
2023-01-21T15:55:02.888Z,30
2023-01-21T15:56:20.189Z,32
2023-01-21T15:57:34.344Z,32
2023-01-21T15:58:46.952Z,33
2023-01-21T15:59:59.234Z,29
2023-01-21T16:01:08.992Z,30
2023-01-21T16:02:22.138Z,32
2023-01-21T16:03:29.735Z,30
2023-01-21T16:04:37.114Z,34
2023-01-21T16:05:54.497Z,34
2023-01-21T16:07:09.977Z,33
2023-01-21T16:08:27.193Z,31
2023-01-21T16:09:40.356Z,34
2023-01-21T16:10:56.472Z,34
2023-01-21T16:12:09.608Z,26
2023-01-21T16:13:24.899Z,34
2023-01-21T16:14:40.411Z,33
2023-01-21T16:15:54.915Z,33
2023-01-21T16:17:09.958Z,34
2023-01-21T16:18:21.044Z,33
2023-01-21T16:19:30.948Z,33
2023-01-21T16:20:39.053Z,34
2023-01-21T16:21:49.892Z,36
2023-01-21T16:22:57.084Z,36
2023-01-21T16:24:04.003Z,36
2023-01-21T16:25:10.996Z,39